sensor_id;sensor_type;location;lat;lon;timestamp;temperature;humidity
3602;DHT22;1815;50.950;6.920;2022-12-26T00:00:28;15.60;99.90
3602;DHT22;1815;50.950;6.920;2022-12-26T00:02:54;15.60;99.90
3602;DHT22;1815;50.950;6.920;2022-12-26T00:05:20;15.50;99.90
3602;DHT22;1815;50.950;6.920;2022-12-26T00:07:46;15.50;99.90
3602;DHT22;1815;50.950;6.920;2022-12-26T00:10:13;15.40;99.90
3602;DHT22;1815;50.950;6.920;2022-12-26T00:12:39;15.40;99.90
3602;DHT22;1815;50.950;6.920;2022-12-26T00:15:07;15.30;99.90
3602;DHT22;1815;50.950;6.920;2022-12-26T00:17:34;15.20;99.90
3602;DHT22;1815;50.950;6.920;2022-12-26T00:20:00;15.20;99.90
3602;DHT22;1815;50.950;6.920;2022-12-26T00:22:27;15.10;99.90
3602;DHT22;1815;50.950;6.920;2022-12-26T00:24:53;15.10;99.90
3602;DHT22;1815;50.950;6.920;2022-12-26T00:27:21;15.00;99.90
3602;DHT22;1815;50.950;6.920;2022-12-26T00:29:48;15.00;99.90
3602;DHT22;1815;50.950;6.920;2022-12-26T00:32:14;15.00;99.90
3602;DHT22;1815;50.950;6.920;2022-12-26T00:34:40;14.90;99.90
3602;DHT22;1815;50.950;6.920;2022-12-26T00:37:06;14.90;99.90
3602;DHT22;1815;50.950;6.920;2022-12-26T00:39:32;14.90;99.90
3602;DHT22;1815;50.950;6.920;2022-12-26T00:41:58;14.90;99.90
3602;DHT22;1815;50.950;6.920;2022-12-26T00:44:25;14.90;99.90
3602;DHT22;1815;50.950;6.920;2022-12-26T00:46:52;14.90;99.90
3602;DHT22;1815;50.950;6.920;2022-12-26T00:49:19;14.90;99.90
3602;DHT22;1815;50.950;6.920;2022-12-26T00:51:45;14.90;99.90
3602;DHT22;1815;50.950;6.920;2022-12-26T00:54:13;14.90;99.90
3602;DHT22;1815;50.950;6.920;2022-12-26T00:56:39;14.90;99.90
3602;DHT22;1815;50.950;6.920;2022-12-26T00:59:05;14.80;99.90
3602;DHT22;1815;50.950;6.920;2022-12-26T01:01:30;14.80;99.90
3602;DHT22;1815;50.950;6.920;2022-12-26T01:03:57;14.80;99.90
3602;DHT22;1815;50.950;6.920;2022-12-26T01:06:23;14.80;99.90
3602;DHT22;1815;50.950;6.920;2022-12-26T01:08:49;14.80;99.90
3602;DHT22;1815;50.950;6.920;2022-12-26T01:11:15;14.80;99.90
3602;DHT22;1815;50.950;6.920;2022-12-26T01:14:02;14.70;99.90
3602;DHT22;1815;50.950;6.920;2022-12-26T01:16:27;14.70;99.90
3602;DHT22;1815;50.950;6.920;2022-12-26T01:18:53;14.70;99.90
3602;DHT22;1815;50.950;6.920;2022-12-26T01:21:19;14.70;99.90
3602;DHT22;1815;50.950;6.920;2022-12-26T01:23:45;14.70;99.90
3602;DHT22;1815;50.950;6.920;2022-12-26T01:26:11;14.70;99.90
3602;DHT22;1815;50.950;6.920;2022-12-26T01:28:37;14.80;99.90
3602;DHT22;1815;50.950;6.920;2022-12-26T01:31:03;14.80;99.90
3602;DHT22;1815;50.950;6.920;2022-12-26T01:33:30;14.80;99.90
3602;DHT22;1815;50.950;6.920;2022-12-26T01:35:56;14.80;99.90
3602;DHT22;1815;50.950;6.920;2022-12-26T01:38:21;14.90;99.90
3602;DHT22;1815;50.950;6.920;2022-12-26T01:40:48;14.90;99.90
3602;DHT22;1815;50.950;6.920;2022-12-26T01:46:12;14.90;99.90
3602;DHT22;1815;50.950;6.920;2022-12-26T01:48:38;15.00;99.90
3602;DHT22;1815;50.950;6.920;2022-12-26T01:51:04;15.00;99.90
3602;DHT22;1815;50.950;6.920;2022-12-26T01:53:36;15.00;99.90
3602;DHT22;1815;50.950;6.920;2022-12-26T01:56:07;15.10;99.90
3602;DHT22;1815;50.950;6.920;2022-12-26T01:58:40;15.10;99.90
3602;DHT22;1815;50.950;6.920;2022-12-26T02:01:09;15.10;99.90
3602;DHT22;1815;50.950;6.920;2022-12-26T02:03:37;15.10;99.90
3602;DHT22;1815;50.950;6.920;2022-12-26T02:06:23;15.00;99.90
3602;DHT22;1815;50.950;6.920;2022-12-26T02:08:49;15.00;99.90
3602;DHT22;1815;50.950;6.920;2022-12-26T02:11:21;15.00;99.90
3602;DHT22;1815;50.950;6.920;2022-12-26T02:13:48;15.00;99.90
3602;DHT22;1815;50.950;6.920;2022-12-26T02:16:16;15.10;99.90
3602;DHT22;1815;50.950;6.920;2022-12-26T02:18:42;15.00;99.90
3602;DHT22;1815;50.950;6.920;2022-12-26T02:24:08;15.00;99.90
3602;DHT22;1815;50.950;6.920;2022-12-26T02:43:25;15.00;99.90
3602;DHT22;1815;50.950;6.920;2022-12-26T02:45:59;15.10;99.90
3602;DHT22;1815;50.950;6.920;2022-12-26T02:49:14;15.10;99.90
3602;DHT22;1815;50.950;6.920;2022-12-26T02:51:50;15.00;99.90
3602;DHT22;1815;50.950;6.920;2022-12-26T02:54:44;15.10;99.90
3602;DHT22;1815;50.950;6.920;2022-12-26T02:57:50;15.00;99.90
3602;DHT22;1815;50.950;6.920;2022-12-26T03:00:39;15.00;99.90
3602;DHT22;1815;50.950;6.920;2022-12-26T03:03:30;15.00;99.90
3602;DHT22;1815;50.950;6.920;2022-12-26T03:06:21;15.00;99.90
3602;DHT22;1815;50.950;6.920;2022-12-26T03:09:23;15.00;99.90
3602;DHT22;1815;50.950;6.920;2022-12-26T03:15:09;14.90;99.90
3602;DHT22;1815;50.950;6.920;2022-12-26T03:17:37;14.90;99.90
3602;DHT22;1815;50.950;6.920;2022-12-26T03:20:10;14.90;99.90
3602;DHT22;1815;50.950;6.920;2022-12-26T03:22:46;14.80;99.90
3602;DHT22;1815;50.950;6.920;2022-12-26T03:25:20;14.80;99.90
3602;DHT22;1815;50.950;6.920;2022-12-26T03:28:18;14.80;99.90
3602;DHT22;1815;50.950;6.920;2022-12-26T03:30:44;14.90;99.90
3602;DHT22;1815;50.950;6.920;2022-12-26T03:36:02;14.80;99.90
3602;DHT22;1815;50.950;6.920;2022-12-26T03:41:52;14.80;99.90
3602;DHT22;1815;50.950;6.920;2022-12-26T03:44:56;14.80;99.90
3602;DHT22;1815;50.950;6.920;2022-12-26T03:50:44;14.70;99.90
3602;DHT22;1815;50.950;6.920;2022-12-26T03:53:38;14.70;99.90
3602;DHT22;1815;50.950;6.920;2022-12-26T03:56:48;14.70;99.90
3602;DHT22;1815;50.950;6.920;2022-12-26T03:59:46;14.70;99.90
3602;DHT22;1815;50.950;6.920;2022-12-26T04:02:39;14.70;99.90
3602;DHT22;1815;50.950;6.920;2022-12-26T04:05:24;14.70;99.90
3602;DHT22;1815;50.950;6.920;2022-12-26T04:08:16;14.80;99.90
3602;DHT22;1815;50.950;6.920;2022-12-26T04:11:14;14.80;99.90
3602;DHT22;1815;50.950;6.920;2022-12-26T04:14:26;14.80;99.90
3602;DHT22;1815;50.950;6.920;2022-12-26T04:17:25;14.80;99.90
3602;DHT22;1815;50.950;6.920;2022-12-26T04:20:17;14.80;99.90
3602;DHT22;1815;50.950;6.920;2022-12-26T04:22:50;14.80;99.90
3602;DHT22;1815;50.950;6.920;2022-12-26T04:25:58;14.80;99.90
3602;DHT22;1815;50.950;6.920;2022-12-26T04:28:44;14.80;99.90
3602;DHT22;1815;50.950;6.920;2022-12-26T04:34:21;14.80;99.90
3602;DHT22;1815;50.950;6.920;2022-12-26T04:37:15;14.80;99.90
3602;DHT22;1815;50.950;6.920;2022-12-26T04:40:03;14.70;99.90
3602;DHT22;1815;50.950;6.920;2022-12-26T04:42:48;14.70;99.90
3602;DHT22;1815;50.950;6.920;2022-12-26T04:45:33;14.70;99.90
3602;DHT22;1815;50.950;6.920;2022-12-26T04:47:59;14.70;99.90
3602;DHT22;1815;50.950;6.920;2022-12-26T04:50:51;14.70;99.90
3602;DHT22;1815;50.950;6.920;2022-12-26T04:53:18;14.60;99.90
3602;DHT22;1815;50.950;6.920;2022-12-26T04:55:44;14.60;99.90
3602;DHT22;1815;50.950;6.920;2022-12-26T04:58:09;14.60;99.90
3602;DHT22;1815;50.950;6.920;2022-12-26T05:00:35;14.60;99.90
3602;DHT22;1815;50.950;6.920;2022-12-26T05:03:01;14.60;99.90
3602;DHT22;1815;50.950;6.920;2022-12-26T05:05:47;14.60;99.90
3602;DHT22;1815;50.950;6.920;2022-12-26T05:08:40;14.50;99.90
3602;DHT22;1815;50.950;6.920;2022-12-26T05:11:26;14.50;99.90
3602;DHT22;1815;50.950;6.920;2022-12-26T05:13:53;14.50;99.90
3602;DHT22;1815;50.950;6.920;2022-12-26T05:16:20;14.50;99.90
3602;DHT22;1815;50.950;6.920;2022-12-26T05:19:05;14.50;99.90
3602;DHT22;1815;50.950;6.920;2022-12-26T05:21:49;14.40;99.90
3602;DHT22;1815;50.950;6.920;2022-12-26T05:24:38;14.40;99.90
3602;DHT22;1815;50.950;6.920;2022-12-26T05:27:23;14.30;99.90
3602;DHT22;1815;50.950;6.920;2022-12-26T05:30:08;14.30;99.90
3602;DHT22;1815;50.950;6.920;2022-12-26T05:32:34;14.20;99.90
3602;DHT22;1815;50.950;6.920;2022-12-26T05:35:19;14.10;99.90
3602;DHT22;1815;50.950;6.920;2022-12-26T05:37:46;14.10;99.90
3602;DHT22;1815;50.950;6.920;2022-12-26T05:40:11;14.00;99.90
3602;DHT22;1815;50.950;6.920;2022-12-26T05:42:37;14.00;99.90
3602;DHT22;1815;50.950;6.920;2022-12-26T05:45:03;13.90;99.90
3602;DHT22;1815;50.950;6.920;2022-12-26T05:47:29;13.80;99.90
3602;DHT22;1815;50.950;6.920;2022-12-26T05:49:54;13.70;99.90
3602;DHT22;1815;50.950;6.920;2022-12-26T05:52:20;13.60;99.90
3602;DHT22;1815;50.950;6.920;2022-12-26T05:54:46;13.60;99.90
3602;DHT22;1815;50.950;6.920;2022-12-26T05:57:11;13.50;99.90
3602;DHT22;1815;50.950;6.920;2022-12-26T05:59:37;13.40;99.90
3602;DHT22;1815;50.950;6.920;2022-12-26T06:02:03;13.30;99.90
3602;DHT22;1815;50.950;6.920;2022-12-26T06:04:29;13.30;99.90
3602;DHT22;1815;50.950;6.920;2022-12-26T06:06:55;13.20;99.90
3602;DHT22;1815;50.950;6.920;2022-12-26T06:09:22;13.20;99.90
3602;DHT22;1815;50.950;6.920;2022-12-26T06:11:48;13.10;99.90
3602;DHT22;1815;50.950;6.920;2022-12-26T06:14:14;13.10;99.90
3602;DHT22;1815;50.950;6.920;2022-12-26T06:16:40;13.00;99.90
3602;DHT22;1815;50.950;6.920;2022-12-26T06:19:06;13.00;99.90
3602;DHT22;1815;50.950;6.920;2022-12-26T06:21:32;12.90;99.90
3602;DHT22;1815;50.950;6.920;2022-12-26T06:23:57;12.90;99.90
3602;DHT22;1815;50.950;6.920;2022-12-26T06:26:23;12.90;99.90
3602;DHT22;1815;50.950;6.920;2022-12-26T06:28:49;12.90;99.90
3602;DHT22;1815;50.950;6.920;2022-12-26T06:31:18;12.90;99.90
3602;DHT22;1815;50.950;6.920;2022-12-26T06:33:46;12.90;99.90
3602;DHT22;1815;50.950;6.920;2022-12-26T06:36:15;12.90;99.90
3602;DHT22;1815;50.950;6.920;2022-12-26T06:38:41;12.90;99.90
3602;DHT22;1815;50.950;6.920;2022-12-26T06:41:09;12.90;99.90
3602;DHT22;1815;50.950;6.920;2022-12-26T06:43:35;12.90;99.90
3602;DHT22;1815;50.950;6.920;2022-12-26T06:46:05;12.90;99.90
3602;DHT22;1815;50.950;6.920;2022-12-26T06:48:32;12.90;99.90
3602;DHT22;1815;50.950;6.920;2022-12-26T06:54:46;12.90;99.90
3602;DHT22;1815;50.950;6.920;2022-12-26T06:57:40;12.90;99.90
3602;DHT22;1815;50.950;6.920;2022-12-26T07:00:06;12.90;99.90
3602;DHT22;1815;50.950;6.920;2022-12-26T07:05:52;12.90;99.90
3602;DHT22;1815;50.950;6.920;2022-12-26T07:08:18;12.90;99.90
3602;DHT22;1815;50.950;6.920;2022-12-26T07:10:44;12.80;99.90
3602;DHT22;1815;50.950;6.920;2022-12-26T07:13:09;12.90;99.90
3602;DHT22;1815;50.950;6.920;2022-12-26T07:15:35;12.90;99.90
3602;DHT22;1815;50.950;6.920;2022-12-26T07:18:02;12.90;99.90
3602;DHT22;1815;50.950;6.920;2022-12-26T07:20:28;12.90;99.90
3602;DHT22;1815;50.950;6.920;2022-12-26T07:22:54;12.90;99.90
3602;DHT22;1815;50.950;6.920;2022-12-26T07:25:19;12.80;99.90
3602;DHT22;1815;50.950;6.920;2022-12-26T07:27:45;12.80;99.90
3602;DHT22;1815;50.950;6.920;2022-12-26T07:30:11;12.80;99.90
3602;DHT22;1815;50.950;6.920;2022-12-26T07:32:37;12.80;99.90
3602;DHT22;1815;50.950;6.920;2022-12-26T07:35:03;12.80;99.90
3602;DHT22;1815;50.950;6.920;2022-12-26T07:37:29;12.80;99.90
3602;DHT22;1815;50.950;6.920;2022-12-26T07:39:55;12.80;99.90
3602;DHT22;1815;50.950;6.920;2022-12-26T07:42:22;12.80;99.90
3602;DHT22;1815;50.950;6.920;2022-12-26T07:44:48;12.80;99.90
3602;DHT22;1815;50.950;6.920;2022-12-26T07:47:15;12.80;99.90
3602;DHT22;1815;50.950;6.920;2022-12-26T07:49:40;12.80;99.90
3602;DHT22;1815;50.950;6.920;2022-12-26T07:52:06;12.70;99.90
3602;DHT22;1815;50.950;6.920;2022-12-26T07:54:32;12.70;99.90
3602;DHT22;1815;50.950;6.920;2022-12-26T07:56:58;12.70;99.90
3602;DHT22;1815;50.950;6.920;2022-12-26T07:59:23;12.70;99.90
3602;DHT22;1815;50.950;6.920;2022-12-26T08:01:49;12.70;99.90
3602;DHT22;1815;50.950;6.920;2022-12-26T08:04:15;12.70;99.90
3602;DHT22;1815;50.950;6.920;2022-12-26T08:06:41;12.70;99.90
3602;DHT22;1815;50.950;6.920;2022-12-26T08:09:06;12.70;99.90
3602;DHT22;1815;50.950;6.920;2022-12-26T08:11:33;12.70;99.90
3602;DHT22;1815;50.950;6.920;2022-12-26T08:13:59;12.70;99.90
3602;DHT22;1815;50.950;6.920;2022-12-26T08:16:27;12.80;99.90
3602;DHT22;1815;50.950;6.920;2022-12-26T08:18:53;12.80;99.90
3602;DHT22;1815;50.950;6.920;2022-12-26T08:21:19;12.80;99.90
3602;DHT22;1815;50.950;6.920;2022-12-26T08:23:44;12.80;99.90
3602;DHT22;1815;50.950;6.920;2022-12-26T08:26:12;12.80;99.90
3602;DHT22;1815;50.950;6.920;2022-12-26T08:28:45;12.80;99.90
3602;DHT22;1815;50.950;6.920;2022-12-26T08:31:12;12.80;99.90
3602;DHT22;1815;50.950;6.920;2022-12-26T08:33:38;12.90;99.90
3602;DHT22;1815;50.950;6.920;2022-12-26T08:36:06;12.90;99.90
3602;DHT22;1815;50.950;6.920;2022-12-26T08:38:32;12.90;99.90
3602;DHT22;1815;50.950;6.920;2022-12-26T08:40:58;12.90;99.90
3602;DHT22;1815;50.950;6.920;2022-12-26T08:43:24;12.90;99.90
3602;DHT22;1815;50.950;6.920;2022-12-26T08:46:00;12.90;99.90
3602;DHT22;1815;50.950;6.920;2022-12-26T08:48:27;12.90;99.90
3602;DHT22;1815;50.950;6.920;2022-12-26T08:50:58;12.90;99.90
3602;DHT22;1815;50.950;6.920;2022-12-26T08:53:25;12.90;99.90
3602;DHT22;1815;50.950;6.920;2022-12-26T08:55:51;12.90;99.90
3602;DHT22;1815;50.950;6.920;2022-12-26T08:58:17;13.00;99.90
3602;DHT22;1815;50.950;6.920;2022-12-26T09:00:42;13.00;99.90
3602;DHT22;1815;50.950;6.920;2022-12-26T09:03:08;13.10;99.90
3602;DHT22;1815;50.950;6.920;2022-12-26T09:05:34;13.10;99.90
3602;DHT22;1815;50.950;6.920;2022-12-26T09:07:59;13.20;99.90
3602;DHT22;1815;50.950;6.920;2022-12-26T09:10:25;13.30;99.90
3602;DHT22;1815;50.950;6.920;2022-12-26T09:12:51;13.40;99.90
3602;DHT22;1815;50.950;6.920;2022-12-26T09:15:17;13.50;99.90
3602;DHT22;1815;50.950;6.920;2022-12-26T09:17:43;13.50;99.90
3602;DHT22;1815;50.950;6.920;2022-12-26T09:20:09;13.60;99.90
3602;DHT22;1815;50.950;6.920;2022-12-26T09:22:35;13.60;99.90
3602;DHT22;1815;50.950;6.920;2022-12-26T09:25:21;13.70;99.90
3602;DHT22;1815;50.950;6.920;2022-12-26T09:27:48;13.80;99.90
3602;DHT22;1815;50.950;6.920;2022-12-26T09:30:14;13.90;99.90
3602;DHT22;1815;50.950;6.920;2022-12-26T09:32:40;13.90;99.90
3602;DHT22;1815;50.950;6.920;2022-12-26T09:35:06;14.00;99.90
3602;DHT22;1815;50.950;6.920;2022-12-26T09:37:32;14.00;99.90
3602;DHT22;1815;50.950;6.920;2022-12-26T09:39:58;14.00;99.90
3602;DHT22;1815;50.950;6.920;2022-12-26T09:47:50;14.10;99.90
3602;DHT22;1815;50.950;6.920;2022-12-26T09:50:23;14.10;99.90
3602;DHT22;1815;50.950;6.920;2022-12-26T09:52:54;14.10;99.90
3602;DHT22;1815;50.950;6.920;2022-12-26T09:55:28;14.20;99.90
3602;DHT22;1815;50.950;6.920;2022-12-26T09:57:58;14.20;99.90
3602;DHT22;1815;50.950;6.920;2022-12-26T10:00:41;14.20;99.90
3602;DHT22;1815;50.950;6.920;2022-12-26T10:03:08;14.20;99.90
3602;DHT22;1815;50.950;6.920;2022-12-26T10:06:01;14.20;99.90
3602;DHT22;1815;50.950;6.920;2022-12-26T10:11:43;14.20;99.90
3602;DHT22;1815;50.950;6.920;2022-12-26T10:19:46;14.20;99.90
3602;DHT22;1815;50.950;6.920;2022-12-26T10:25:02;14.30;99.90
3602;DHT22;1815;50.950;6.920;2022-12-26T10:27:39;14.30;99.90
3602;DHT22;1815;50.950;6.920;2022-12-26T10:30:06;14.30;99.90
3602;DHT22;1815;50.950;6.920;2022-12-26T10:32:43;14.30;99.90
3602;DHT22;1815;50.950;6.920;2022-12-26T10:35:42;14.40;99.90
3602;DHT22;1815;50.950;6.920;2022-12-26T10:38:29;14.40;99.90
3602;DHT22;1815;50.950;6.920;2022-12-26T10:41:03;14.50;99.90
3602;DHT22;1815;50.950;6.920;2022-12-26T10:43:33;14.50;99.90
3602;DHT22;1815;50.950;6.920;2022-12-26T10:48:30;14.60;99.90
3602;DHT22;1815;50.950;6.920;2022-12-26T10:50:56;14.60;99.90
3602;DHT22;1815;50.950;6.920;2022-12-26T10:53:22;14.60;99.90
3602;DHT22;1815;50.950;6.920;2022-12-26T10:55:48;14.60;99.90
3602;DHT22;1815;50.950;6.920;2022-12-26T10:58:24;14.60;99.90
3602;DHT22;1815;50.950;6.920;2022-12-26T11:00:52;14.60;99.90
3602;DHT22;1815;50.950;6.920;2022-12-26T11:03:19;14.70;99.90
3602;DHT22;1815;50.950;6.920;2022-12-26T11:05:51;14.70;99.90
3602;DHT22;1815;50.950;6.920;2022-12-26T11:11:22;14.80;99.90
3602;DHT22;1815;50.950;6.920;2022-12-26T11:13:52;14.80;99.90
3602;DHT22;1815;50.950;6.920;2022-12-26T11:16:25;14.90;99.90
3602;DHT22;1815;50.950;6.920;2022-12-26T11:18:52;14.90;99.90
3602;DHT22;1815;50.950;6.920;2022-12-26T11:23:45;15.00;99.90
3602;DHT22;1815;50.950;6.920;2022-12-26T11:26:28;15.10;99.90
3602;DHT22;1815;50.950;6.920;2022-12-26T11:29:07;15.10;99.90
3602;DHT22;1815;50.950;6.920;2022-12-26T11:31:34;15.10;99.90
3602;DHT22;1815;50.950;6.920;2022-12-26T11:34:06;15.20;99.90
3602;DHT22;1815;50.950;6.920;2022-12-26T11:36:32;15.30;99.90
3602;DHT22;1815;50.950;6.920;2022-12-26T11:39:05;15.30;99.90
3602;DHT22;1815;50.950;6.920;2022-12-26T11:41:35;15.40;99.90
3602;DHT22;1815;50.950;6.920;2022-12-26T11:49:23;15.50;99.90
3602;DHT22;1815;50.950;6.920;2022-12-26T11:51:51;15.50;99.90
3602;DHT22;1815;50.950;6.920;2022-12-26T11:54:28;15.50;99.90
3602;DHT22;1815;50.950;6.920;2022-12-26T11:59:41;15.50;99.90
3602;DHT22;1815;50.950;6.920;2022-12-26T12:02:15;15.50;99.90
3602;DHT22;1815;50.950;6.920;2022-12-26T12:04:41;15.50;99.90
3602;DHT22;1815;50.950;6.920;2022-12-26T12:07:39;15.60;99.90
3602;DHT22;1815;50.950;6.920;2022-12-26T12:12:45;15.60;99.90
3602;DHT22;1815;50.950;6.920;2022-12-26T12:15:29;15.60;99.90
3602;DHT22;1815;50.950;6.920;2022-12-26T12:18:11;15.50;99.90
3602;DHT22;1815;50.950;6.920;2022-12-26T12:21:26;15.50;99.90
3602;DHT22;1815;50.950;6.920;2022-12-26T12:31:53;15.30;99.90
3602;DHT22;1815;50.950;6.920;2022-12-26T12:45:23;14.90;99.90
3602;DHT22;1815;50.950;6.920;2022-12-26T12:48:01;14.80;99.90
3602;DHT22;1815;50.950;6.920;2022-12-26T12:50:48;14.80;99.90
3602;DHT22;1815;50.950;6.920;2022-12-26T12:59:00;14.70;99.90
3602;DHT22;1815;50.950;6.920;2022-12-26T13:01:38;14.60;99.90
3602;DHT22;1815;50.950;6.920;2022-12-26T13:04:16;14.70;99.90
3602;DHT22;1815;50.950;6.920;2022-12-26T13:06:46;14.70;99.90
3602;DHT22;1815;50.950;6.920;2022-12-26T13:09:18;14.70;99.90
3602;DHT22;1815;50.950;6.920;2022-12-26T13:11:54;14.70;99.90
3602;DHT22;1815;50.950;6.920;2022-12-26T13:14:25;14.70;99.90
3602;DHT22;1815;50.950;6.920;2022-12-26T13:17:06;14.70;99.90
3602;DHT22;1815;50.950;6.920;2022-12-26T13:19:40;14.70;99.90
3602;DHT22;1815;50.950;6.920;2022-12-26T13:22:13;14.70;99.90
3602;DHT22;1815;50.950;6.920;2022-12-26T13:24:45;14.70;99.90
3602;DHT22;1815;50.950;6.920;2022-12-26T13:27:32;14.70;99.90
3602;DHT22;1815;50.950;6.920;2022-12-26T13:29:59;14.60;99.90
3602;DHT22;1815;50.950;6.920;2022-12-26T13:32:29;14.60;99.90
3602;DHT22;1815;50.950;6.920;2022-12-26T13:35:00;14.50;99.90
3602;DHT22;1815;50.950;6.920;2022-12-26T13:40:18;14.30;99.90
3602;DHT22;1815;50.950;6.920;2022-12-26T13:42:44;14.20;99.90
3602;DHT22;1815;50.950;6.920;2022-12-26T13:45:51;14.10;99.90
3602;DHT22;1815;50.950;6.920;2022-12-26T13:51:00;13.80;99.90
3602;DHT22;1815;50.950;6.920;2022-12-26T13:55:56;13.60;99.90
3602;DHT22;1815;50.950;6.920;2022-12-26T14:02:01;13.40;99.90
3602;DHT22;1815;50.950;6.920;2022-12-26T14:07:19;13.20;99.90
3602;DHT22;1815;50.950;6.920;2022-12-26T14:15:21;13.10;99.90
3602;DHT22;1815;50.950;6.920;2022-12-26T14:20:54;13.00;99.90
3602;DHT22;1815;50.950;6.920;2022-12-26T14:29:08;12.80;99.90
3602;DHT22;1815;50.950;6.920;2022-12-26T14:45:47;12.40;99.90
3602;DHT22;1815;50.950;6.920;2022-12-26T15:19:34;12.10;99.90
3602;DHT22;1815;50.950;6.920;2022-12-26T15:22:42;12.10;99.90
3602;DHT22;1815;50.950;6.920;2022-12-26T15:34:04;11.90;99.90
3602;DHT22;1815;50.950;6.920;2022-12-26T15:50:28;11.50;99.90
3602;DHT22;1815;50.950;6.920;2022-12-26T15:55:57;11.40;99.90
3602;DHT22;1815;50.950;6.920;2022-12-26T15:58:57;11.30;99.90
3602;DHT22;1815;50.950;6.920;2022-12-26T16:01:45;11.20;99.90
3602;DHT22;1815;50.950;6.920;2022-12-26T16:07:32;11.10;99.90
3602;DHT22;1815;50.950;6.920;2022-12-26T16:10:00;11.10;99.90
3602;DHT22;1815;50.950;6.920;2022-12-26T16:12:33;11.10;99.90
3602;DHT22;1815;50.950;6.920;2022-12-26T16:17:36;11.10;99.90
3602;DHT22;1815;50.950;6.920;2022-12-26T16:23:05;11.00;99.90
3602;DHT22;1815;50.950;6.920;2022-12-26T16:25:31;11.10;99.90
3602;DHT22;1815;50.950;6.920;2022-12-26T16:27:58;11.00;99.90
3602;DHT22;1815;50.950;6.920;2022-12-26T16:30:27;11.10;99.90
3602;DHT22;1815;50.950;6.920;2022-12-26T16:32:55;11.00;99.90
3602;DHT22;1815;50.950;6.920;2022-12-26T16:35:47;11.10;99.90
3602;DHT22;1815;50.950;6.920;2022-12-26T16:38:18;11.00;99.90
3602;DHT22;1815;50.950;6.920;2022-12-26T16:40:48;11.00;99.90
3602;DHT22;1815;50.950;6.920;2022-12-26T16:45:46;11.00;99.90
3602;DHT22;1815;50.950;6.920;2022-12-26T16:48:16;11.00;99.90
3602;DHT22;1815;50.950;6.920;2022-12-26T16:53:51;10.90;99.90
3602;DHT22;1815;50.950;6.920;2022-12-26T16:56:31;11.00;99.90
3602;DHT22;1815;50.950;6.920;2022-12-26T16:59:18;10.90;99.90
3602;DHT22;1815;50.950;6.920;2022-12-26T17:01:51;10.90;99.90
3602;DHT22;1815;50.950;6.920;2022-12-26T17:04:23;10.90;99.90
3602;DHT22;1815;50.950;6.920;2022-12-26T17:07:02;10.90;99.90
3602;DHT22;1815;50.950;6.920;2022-12-26T17:09:39;10.80;99.90
3602;DHT22;1815;50.950;6.920;2022-12-26T17:12:12;10.80;99.90
3602;DHT22;1815;50.950;6.920;2022-12-26T17:14:45;10.80;99.90
3602;DHT22;1815;50.950;6.920;2022-12-26T17:19:46;10.70;99.90
3602;DHT22;1815;50.950;6.920;2022-12-26T17:22:35;10.60;99.90
3602;DHT22;1815;50.950;6.920;2022-12-26T17:28:30;10.50;99.90
3602;DHT22;1815;50.950;6.920;2022-12-26T17:30:31;10.50;99.90
3602;DHT22;1815;50.950;6.920;2022-12-26T17:33:21;10.40;99.90
3602;DHT22;1815;50.950;6.920;2022-12-26T17:36:11;10.40;99.90
3602;DHT22;1815;50.950;6.920;2022-12-26T17:38:37;10.30;99.90
3602;DHT22;1815;50.950;6.920;2022-12-26T17:41:05;10.20;99.90
3602;DHT22;1815;50.950;6.920;2022-12-26T17:43:35;10.20;99.90
3602;DHT22;1815;50.950;6.920;2022-12-26T17:46:02;10.10;99.90
3602;DHT22;1815;50.950;6.920;2022-12-26T17:48:29;10.10;99.90
3602;DHT22;1815;50.950;6.920;2022-12-26T17:51:04;10.00;99.90
3602;DHT22;1815;50.950;6.920;2022-12-26T17:55:59;9.80;99.90
3602;DHT22;1815;50.950;6.920;2022-12-26T17:58:27;9.60;99.90
3602;DHT22;1815;50.950;6.920;2022-12-26T18:00:53;9.50;99.90
3602;DHT22;1815;50.950;6.920;2022-12-26T18:03:19;9.40;99.90
3602;DHT22;1815;50.950;6.920;2022-12-26T18:05:46;9.30;99.90
3602;DHT22;1815;50.950;6.920;2022-12-26T18:08:34;9.20;99.90
3602;DHT22;1815;50.950;6.920;2022-12-26T18:11:03;9.10;99.90
3602;DHT22;1815;50.950;6.920;2022-12-26T18:13:29;9.00;99.90
3602;DHT22;1815;50.950;6.920;2022-12-26T18:15:55;8.80;99.90
3602;DHT22;1815;50.950;6.920;2022-12-26T18:20:56;8.70;99.90
3602;DHT22;1815;50.950;6.920;2022-12-26T18:23:22;8.60;99.90
3602;DHT22;1815;50.950;6.920;2022-12-26T18:25:48;8.60;99.90
3602;DHT22;1815;50.950;6.920;2022-12-26T18:28:15;8.50;99.90
3602;DHT22;1815;50.950;6.920;2022-12-26T18:30:41;8.50;99.90
3602;DHT22;1815;50.950;6.920;2022-12-26T18:33:11;8.40;99.90
3602;DHT22;1815;50.950;6.920;2022-12-26T18:35:39;8.40;99.90
3602;DHT22;1815;50.950;6.920;2022-12-26T18:38:05;8.30;99.90
3602;DHT22;1815;50.950;6.920;2022-12-26T18:40:39;8.20;99.90
3602;DHT22;1815;50.950;6.920;2022-12-26T18:43:06;8.20;99.90
3602;DHT22;1815;50.950;6.920;2022-12-26T18:45:33;8.10;99.90
3602;DHT22;1815;50.950;6.920;2022-12-26T18:47:59;8.00;99.90
3602;DHT22;1815;50.950;6.920;2022-12-26T18:50:26;8.00;99.90
3602;DHT22;1815;50.950;6.920;2022-12-26T18:52:51;7.90;99.90
3602;DHT22;1815;50.950;6.920;2022-12-26T18:55:17;7.90;99.90
3602;DHT22;1815;50.950;6.920;2022-12-26T18:57:43;7.80;99.90
3602;DHT22;1815;50.950;6.920;2022-12-26T19:00:13;7.70;99.90
3602;DHT22;1815;50.950;6.920;2022-12-26T19:02:39;7.70;99.90
3602;DHT22;1815;50.950;6.920;2022-12-26T19:05:05;7.60;99.90
3602;DHT22;1815;50.950;6.920;2022-12-26T19:07:32;7.60;99.90
3602;DHT22;1815;50.950;6.920;2022-12-26T19:09:57;7.50;99.90
3602;DHT22;1815;50.950;6.920;2022-12-26T19:12:25;7.50;99.90
3602;DHT22;1815;50.950;6.920;2022-12-26T19:14:51;7.40;99.90
3602;DHT22;1815;50.950;6.920;2022-12-26T19:17:17;7.40;99.90
3602;DHT22;1815;50.950;6.920;2022-12-26T19:19:43;7.40;99.90
3602;DHT22;1815;50.950;6.920;2022-12-26T19:22:09;7.30;99.90
3602;DHT22;1815;50.950;6.920;2022-12-26T19:24:35;7.30;99.90
3602;DHT22;1815;50.950;6.920;2022-12-26T19:27:01;7.30;99.90
3602;DHT22;1815;50.950;6.920;2022-12-26T19:29:27;7.30;99.90
3602;DHT22;1815;50.950;6.920;2022-12-26T19:31:52;7.30;99.90
3602;DHT22;1815;50.950;6.920;2022-12-26T19:34:21;7.20;99.90
3602;DHT22;1815;50.950;6.920;2022-12-26T19:36:48;7.20;99.90
3602;DHT22;1815;50.950;6.920;2022-12-26T19:39:13;7.10;99.90
3602;DHT22;1815;50.950;6.920;2022-12-26T19:41:39;7.10;99.90
3602;DHT22;1815;50.950;6.920;2022-12-26T19:44:05;7.10;99.90
3602;DHT22;1815;50.950;6.920;2022-12-26T19:46:31;7.10;99.90
3602;DHT22;1815;50.950;6.920;2022-12-26T19:48:56;7.00;99.90
3602;DHT22;1815;50.950;6.920;2022-12-26T19:51:22;7.00;99.90
3602;DHT22;1815;50.950;6.920;2022-12-26T19:53:49;7.00;99.90
3602;DHT22;1815;50.950;6.920;2022-12-26T19:56:20;7.00;99.90
3602;DHT22;1815;50.950;6.920;2022-12-26T19:58:47;7.00;99.90
3602;DHT22;1815;50.950;6.920;2022-12-26T20:01:16;7.00;99.90
3602;DHT22;1815;50.950;6.920;2022-12-26T20:03:42;6.90;99.90
3602;DHT22;1815;50.950;6.920;2022-12-26T20:06:10;6.90;99.90
3602;DHT22;1815;50.950;6.920;2022-12-26T20:08:36;6.80;99.90
3602;DHT22;1815;50.950;6.920;2022-12-26T20:11:07;6.80;99.90
3602;DHT22;1815;50.950;6.920;2022-12-26T20:13:34;6.80;99.90
3602;DHT22;1815;50.950;6.920;2022-12-26T20:16:05;6.70;99.90
3602;DHT22;1815;50.950;6.920;2022-12-26T20:18:31;6.70;99.90
3602;DHT22;1815;50.950;6.920;2022-12-26T20:20:58;6.70;99.90
3602;DHT22;1815;50.950;6.920;2022-12-26T20:23:24;6.70;99.90